sensor_id;sensor_type;location;lat;lon;timestamp;temperature;humidity
12166;DHT22;6146;48.128;11.476;2023-04-25T00:02:25;7.50;99.90
12166;DHT22;6146;48.128;11.476;2023-04-25T00:04:50;7.50;99.90
12166;DHT22;6146;48.128;11.476;2023-04-25T00:07:16;7.50;99.90
12166;DHT22;6146;48.128;11.476;2023-04-25T00:09:42;7.60;99.90
12166;DHT22;6146;48.128;11.476;2023-04-25T00:12:08;7.70;99.90
12166;DHT22;6146;48.128;11.476;2023-04-25T00:14:33;7.70;99.90
12166;DHT22;6146;48.128;11.476;2023-04-25T00:17:00;7.60;99.90
12166;DHT22;6146;48.128;11.476;2023-04-25T00:19:26;7.70;99.90
12166;DHT22;6146;48.128;11.476;2023-04-25T00:21:56;7.70;99.90
12166;DHT22;6146;48.128;11.476;2023-04-25T00:24:22;7.70;99.90
12166;DHT22;6146;48.128;11.476;2023-04-25T00:26:48;7.80;99.90
12166;DHT22;6146;48.128;11.476;2023-04-25T00:29:14;7.80;99.90
12166;DHT22;6146;48.128;11.476;2023-04-25T00:31:39;7.80;99.90
12166;DHT22;6146;48.128;11.476;2023-04-25T00:34:06;7.80;99.90
12166;DHT22;6146;48.128;11.476;2023-04-25T00:36:32;7.80;99.90
12166;DHT22;6146;48.128;11.476;2023-04-25T00:38:57;7.80;99.90
12166;DHT22;6146;48.128;11.476;2023-04-25T00:41:25;7.80;99.90
12166;DHT22;6146;48.128;11.476;2023-04-25T00:43:51;7.70;99.90
12166;DHT22;6146;48.128;11.476;2023-04-25T00:46:17;7.70;99.90
12166;DHT22;6146;48.128;11.476;2023-04-25T00:48:43;7.60;99.90
12166;DHT22;6146;48.128;11.476;2023-04-25T00:51:10;7.60;99.90
12166;DHT22;6146;48.128;11.476;2023-04-25T00:53:38;7.60;99.90
12166;DHT22;6146;48.128;11.476;2023-04-25T00:56:05;7.60;99.90
12166;DHT22;6146;48.128;11.476;2023-04-25T00:58:31;7.50;99.90
12166;DHT22;6146;48.128;11.476;2023-04-25T01:00:57;7.50;99.90
12166;DHT22;6146;48.128;11.476;2023-04-25T01:03:23;7.40;99.90
12166;DHT22;6146;48.128;11.476;2023-04-25T01:05:49;7.40;99.90
12166;DHT22;6146;48.128;11.476;2023-04-25T01:08:16;7.40;99.90
12166;DHT22;6146;48.128;11.476;2023-04-25T01:10:41;7.30;99.90
12166;DHT22;6146;48.128;11.476;2023-04-25T01:13:07;7.40;99.90
12166;DHT22;6146;48.128;11.476;2023-04-25T01:15:32;7.50;99.90
12166;DHT22;6146;48.128;11.476;2023-04-25T01:17:58;7.40;99.90
12166;DHT22;6146;48.128;11.476;2023-04-25T01:20:26;7.40;99.90
12166;DHT22;6146;48.128;11.476;2023-04-25T01:22:53;7.40;99.90
12166;DHT22;6146;48.128;11.476;2023-04-25T01:25:21;7.40;99.90
12166;DHT22;6146;48.128;11.476;2023-04-25T01:27:47;7.40;99.90
12166;DHT22;6146;48.128;11.476;2023-04-25T01:30:13;7.40;99.90
12166;DHT22;6146;48.128;11.476;2023-04-25T01:32:40;7.90;99.90
12166;DHT22;6146;48.128;11.476;2023-04-25T01:35:10;7.30;99.90
12166;DHT22;6146;48.128;11.476;2023-04-25T01:37:43;7.30;99.90
12166;DHT22;6146;48.128;11.476;2023-04-25T01:40:10;7.30;99.90
12166;DHT22;6146;48.128;11.476;2023-04-25T01:42:38;7.20;99.90
12166;DHT22;6146;48.128;11.476;2023-04-25T01:45:06;7.20;99.90
12166;DHT22;6146;48.128;11.476;2023-04-25T01:47:32;7.10;99.90
12166;DHT22;6146;48.128;11.476;2023-04-25T01:49:57;7.10;99.90
12166;DHT22;6146;48.128;11.476;2023-04-25T01:52:23;7.00;99.90
12166;DHT22;6146;48.128;11.476;2023-04-25T01:54:49;6.90;99.90
12166;DHT22;6146;48.128;11.476;2023-04-25T01:57:16;6.90;99.90
12166;DHT22;6146;48.128;11.476;2023-04-25T01:59:42;6.80;99.90
12166;DHT22;6146;48.128;11.476;2023-04-25T02:02:08;6.80;99.90
12166;DHT22;6146;48.128;11.476;2023-04-25T02:04:33;6.70;99.90
12166;DHT22;6146;48.128;11.476;2023-04-25T02:06:59;6.70;99.90
12166;DHT22;6146;48.128;11.476;2023-04-25T02:09:25;6.70;99.90
12166;DHT22;6146;48.128;11.476;2023-04-25T02:11:50;6.70;99.90
12166;DHT22;6146;48.128;11.476;2023-04-25T02:14:16;6.70;99.90
12166;DHT22;6146;48.128;11.476;2023-04-25T02:16:41;6.70;99.90
12166;DHT22;6146;48.128;11.476;2023-04-25T02:19:09;6.70;99.90
12166;DHT22;6146;48.128;11.476;2023-04-25T02:21:35;6.70;99.90
12166;DHT22;6146;48.128;11.476;2023-04-25T02:24:01;6.70;99.90
12166;DHT22;6146;48.128;11.476;2023-04-25T02:26:26;6.70;99.90
12166;DHT22;6146;48.128;11.476;2023-04-25T02:28:52;6.80;99.90
12166;DHT22;6146;48.128;11.476;2023-04-25T02:31:17;6.80;99.90
12166;DHT22;6146;48.128;11.476;2023-04-25T02:33:43;6.90;99.90
12166;DHT22;6146;48.128;11.476;2023-04-25T02:36:09;6.90;99.90
12166;DHT22;6146;48.128;11.476;2023-04-25T02:38:35;6.90;99.90
12166;DHT22;6146;48.128;11.476;2023-04-25T02:41:01;7.00;99.90
12166;DHT22;6146;48.128;11.476;2023-04-25T02:43:26;7.00;99.90
12166;DHT22;6146;48.128;11.476;2023-04-25T02:45:52;7.00;99.90
12166;DHT22;6146;48.128;11.476;2023-04-25T02:48:17;7.00;99.90
12166;DHT22;6146;48.128;11.476;2023-04-25T02:50:43;7.00;99.90
12166;DHT22;6146;48.128;11.476;2023-04-25T02:53:09;7.00;99.90
12166;DHT22;6146;48.128;11.476;2023-04-25T02:55:34;7.10;99.90
12166;DHT22;6146;48.128;11.476;2023-04-25T02:58:00;7.10;99.90
12166;DHT22;6146;48.128;11.476;2023-04-25T03:00:26;7.10;99.90
12166;DHT22;6146;48.128;11.476;2023-04-25T03:02:51;7.20;99.90
12166;DHT22;6146;48.128;11.476;2023-04-25T03:05:17;7.20;99.90
12166;DHT22;6146;48.128;11.476;2023-04-25T03:07:43;7.20;99.90
12166;DHT22;6146;48.128;11.476;2023-04-25T03:10:10;7.20;99.90
12166;DHT22;6146;48.128;11.476;2023-04-25T03:12:36;7.30;99.90
12166;DHT22;6146;48.128;11.476;2023-04-25T03:15:02;7.30;99.90
12166;DHT22;6146;48.128;11.476;2023-04-25T03:17:27;7.30;99.90
12166;DHT22;6146;48.128;11.476;2023-04-25T03:19:53;7.30;99.90
12166;DHT22;6146;48.128;11.476;2023-04-25T03:22:18;7.30;99.90
12166;DHT22;6146;48.128;11.476;2023-04-25T03:24:44;7.40;99.90
12166;DHT22;6146;48.128;11.476;2023-04-25T03:27:10;7.40;99.90
12166;DHT22;6146;48.128;11.476;2023-04-25T03:29:35;7.30;99.90
12166;DHT22;6146;48.128;11.476;2023-04-25T03:32:01;7.30;99.90
12166;DHT22;6146;48.128;11.476;2023-04-25T03:34:26;7.30;99.90
12166;DHT22;6146;48.128;11.476;2023-04-25T03:36:52;7.20;99.90
12166;DHT22;6146;48.128;11.476;2023-04-25T03:39:18;7.10;99.90
12166;DHT22;6146;48.128;11.476;2023-04-25T03:41:43;7.10;99.90
12166;DHT22;6146;48.128;11.476;2023-04-25T03:44:09;7.00;99.90
12166;DHT22;6146;48.128;11.476;2023-04-25T03:46:34;7.00;99.90
12166;DHT22;6146;48.128;11.476;2023-04-25T03:49:00;7.00;99.90
12166;DHT22;6146;48.128;11.476;2023-04-25T03:51:25;7.00;99.90
12166;DHT22;6146;48.128;11.476;2023-04-25T03:53:52;6.90;99.90
12166;DHT22;6146;48.128;11.476;2023-04-25T03:56:17;6.90;99.90
12166;DHT22;6146;48.128;11.476;2023-04-25T03:58:43;6.90;99.90
12166;DHT22;6146;48.128;11.476;2023-04-25T04:01:09;6.80;99.90
12166;DHT22;6146;48.128;11.476;2023-04-25T04:03:35;6.80;99.90
12166;DHT22;6146;48.128;11.476;2023-04-25T04:06:02;6.80;99.90
12166;DHT22;6146;48.128;11.476;2023-04-25T04:08:29;6.80;99.90
12166;DHT22;6146;48.128;11.476;2023-04-25T04:10:56;6.80;99.90
12166;DHT22;6146;48.128;11.476;2023-04-25T04:13:22;6.80;99.90
12166;DHT22;6146;48.128;11.476;2023-04-25T04:15:47;6.80;99.90
12166;DHT22;6146;48.128;11.476;2023-04-25T04:18:13;6.80;99.90
12166;DHT22;6146;48.128;11.476;2023-04-25T04:20:38;6.70;99.90
12166;DHT22;6146;48.128;11.476;2023-04-25T04:23:04;6.70;99.90
12166;DHT22;6146;48.128;11.476;2023-04-25T04:25:30;6.60;99.90
12166;DHT22;6146;48.128;11.476;2023-04-25T04:27:56;6.60;99.90
12166;DHT22;6146;48.128;11.476;2023-04-25T04:30:23;6.70;99.90
12166;DHT22;6146;48.128;11.476;2023-04-25T04:32:55;6.70;99.90
12166;DHT22;6146;48.128;11.476;2023-04-25T04:35:21;6.80;99.90
12166;DHT22;6146;48.128;11.476;2023-04-25T04:37:47;6.80;99.90
12166;DHT22;6146;48.128;11.476;2023-04-25T04:40:14;6.80;99.90
12166;DHT22;6146;48.128;11.476;2023-04-25T04:42:44;6.70;99.90
12166;DHT22;6146;48.128;11.476;2023-04-25T04:45:16;6.70;99.90
12166;DHT22;6146;48.128;11.476;2023-04-25T04:47:42;6.80;99.90
12166;DHT22;6146;48.128;11.476;2023-04-25T04:50:09;6.80;99.90
12166;DHT22;6146;48.128;11.476;2023-04-25T04:52:36;6.90;99.90
12166;DHT22;6146;48.128;11.476;2023-04-25T04:55:02;6.90;99.90
12166;DHT22;6146;48.128;11.476;2023-04-25T04:57:28;7.00;99.90
12166;DHT22;6146;48.128;11.476;2023-04-25T04:59:54;7.00;99.90
12166;DHT22;6146;48.128;11.476;2023-04-25T05:02:20;7.00;99.90
12166;DHT22;6146;48.128;11.476;2023-04-25T05:04:45;7.00;99.90
12166;DHT22;6146;48.128;11.476;2023-04-25T05:07:11;7.10;99.90
12166;DHT22;6146;48.128;11.476;2023-04-25T05:09:36;7.20;99.90
12166;DHT22;6146;48.128;11.476;2023-04-25T05:12:02;7.20;99.90
12166;DHT22;6146;48.128;11.476;2023-04-25T05:14:28;7.20;99.90
12166;DHT22;6146;48.128;11.476;2023-04-25T05:16:54;7.20;99.90
12166;DHT22;6146;48.128;11.476;2023-04-25T05:19:20;7.10;99.90
12166;DHT22;6146;48.128;11.476;2023-04-25T05:21:45;7.10;99.90
12166;DHT22;6146;48.128;11.476;2023-04-25T05:24:11;7.20;99.90
12166;DHT22;6146;48.128;11.476;2023-04-25T05:26:37;7.20;99.90
12166;DHT22;6146;48.128;11.476;2023-04-25T05:29:03;7.10;99.90
12166;DHT22;6146;48.128;11.476;2023-04-25T05:31:28;7.20;99.90
12166;DHT22;6146;48.128;11.476;2023-04-25T05:33:54;7.30;99.90
12166;DHT22;6146;48.128;11.476;2023-04-25T05:36:19;7.20;99.90
12166;DHT22;6146;48.128;11.476;2023-04-25T05:38:45;7.30;99.90
12166;DHT22;6146;48.128;11.476;2023-04-25T05:41:11;7.30;99.90
12166;DHT22;6146;48.128;11.476;2023-04-25T05:43:36;7.30;99.90
12166;DHT22;6146;48.128;11.476;2023-04-25T05:46:02;7.30;99.90
12166;DHT22;6146;48.128;11.476;2023-04-25T05:48:27;7.40;99.90
12166;DHT22;6146;48.128;11.476;2023-04-25T05:50:53;7.50;99.90
12166;DHT22;6146;48.128;11.476;2023-04-25T05:53:19;7.40;99.90
12166;DHT22;6146;48.128;11.476;2023-04-25T05:55:46;7.40;99.90
12166;DHT22;6146;48.128;11.476;2023-04-25T05:58:11;7.30;99.90
12166;DHT22;6146;48.128;11.476;2023-04-25T06:00:37;6.80;99.90
12166;DHT22;6146;48.128;11.476;2023-04-25T06:03:03;6.70;99.90
12166;DHT22;6146;48.128;11.476;2023-04-25T06:05:29;6.70;99.90
12166;DHT22;6146;48.128;11.476;2023-04-25T06:07:55;6.50;99.90
12166;DHT22;6146;48.128;11.476;2023-04-25T06:10:20;6.40;99.90
12166;DHT22;6146;48.128;11.476;2023-04-25T06:12:46;6.30;99.90
12166;DHT22;6146;48.128;11.476;2023-04-25T06:15:12;6.30;99.90
12166;DHT22;6146;48.128;11.476;2023-04-25T06:17:37;6.40;99.90
12166;DHT22;6146;48.128;11.476;2023-04-25T06:20:03;6.40;99.90
12166;DHT22;6146;48.128;11.476;2023-04-25T06:22:29;6.40;99.90
12166;DHT22;6146;48.128;11.476;2023-04-25T06:24:55;6.40;99.90
12166;DHT22;6146;48.128;11.476;2023-04-25T06:27:24;6.50;99.90
12166;DHT22;6146;48.128;11.476;2023-04-25T06:29:49;6.70;99.90
12166;DHT22;6146;48.128;11.476;2023-04-25T06:32:15;6.90;99.90
12166;DHT22;6146;48.128;11.476;2023-04-25T06:34:41;7.10;99.90
12166;DHT22;6146;48.128;11.476;2023-04-25T06:37:06;7.30;99.90
12166;DHT22;6146;48.128;11.476;2023-04-25T06:39:32;7.40;99.90
12166;DHT22;6146;48.128;11.476;2023-04-25T06:41:57;7.70;99.90
12166;DHT22;6146;48.128;11.476;2023-04-25T06:44:23;8.10;99.90
12166;DHT22;6146;48.128;11.476;2023-04-25T06:46:49;8.90;99.90
12166;DHT22;6146;48.128;11.476;2023-04-25T06:49:15;9.80;99.90
12166;DHT22;6146;48.128;11.476;2023-04-25T06:51:41;11.30;99.90
12166;DHT22;6146;48.128;11.476;2023-04-25T06:54:06;13.00;99.90
12166;DHT22;6146;48.128;11.476;2023-04-25T06:56:32;13.30;99.90
12166;DHT22;6146;48.128;11.476;2023-04-25T06:58:58;12.70;99.90
12166;DHT22;6146;48.128;11.476;2023-04-25T07:01:23;12.00;99.90
12166;DHT22;6146;48.128;11.476;2023-04-25T07:03:49;11.30;99.90
12166;DHT22;6146;48.128;11.476;2023-04-25T07:06:14;10.80;99.90
12166;DHT22;6146;48.128;11.476;2023-04-25T07:08:40;10.40;99.90
12166;DHT22;6146;48.128;11.476;2023-04-25T07:11:06;10.10;99.90
12166;DHT22;6146;48.128;11.476;2023-04-25T07:13:31;9.80;99.90
12166;DHT22;6146;48.128;11.476;2023-04-25T07:15:57;9.70;99.90
12166;DHT22;6146;48.128;11.476;2023-04-25T07:18:22;9.70;99.90
12166;DHT22;6146;48.128;11.476;2023-04-25T07:20:48;9.80;99.90
12166;DHT22;6146;48.128;11.476;2023-04-25T07:23:14;9.90;99.90
12166;DHT22;6146;48.128;11.476;2023-04-25T07:25:39;10.00;99.90
12166;DHT22;6146;48.128;11.476;2023-04-25T07:28:05;10.20;99.90
12166;DHT22;6146;48.128;11.476;2023-04-25T07:30:31;10.40;99.90
12166;DHT22;6146;48.128;11.476;2023-04-25T07:32:56;10.60;99.90
12166;DHT22;6146;48.128;11.476;2023-04-25T07:35:22;11.00;99.90
12166;DHT22;6146;48.128;11.476;2023-04-25T07:37:47;11.40;99.90
12166;DHT22;6146;48.128;11.476;2023-04-25T07:40:13;12.70;99.90
12166;DHT22;6146;48.128;11.476;2023-04-25T07:42:41;13.90;99.90
12166;DHT22;6146;48.128;11.476;2023-04-25T07:45:07;15.10;99.90
12166;DHT22;6146;48.128;11.476;2023-04-25T07:47:34;16.10;99.90
12166;DHT22;6146;48.128;11.476;2023-04-25T07:50:00;18.00;99.90
12166;DHT22;6146;48.128;11.476;2023-04-25T07:52:26;19.70;99.90
12166;DHT22;6146;48.128;11.476;2023-04-25T07:54:51;20.10;97.90
12166;DHT22;6146;48.128;11.476;2023-04-25T07:57:17;21.60;96.20
12166;DHT22;6146;48.128;11.476;2023-04-25T07:59:43;23.30;90.00
12166;DHT22;6146;48.128;11.476;2023-04-25T08:02:09;23.00;88.20
12166;DHT22;6146;48.128;11.476;2023-04-25T08:04:34;21.70;85.90
12166;DHT22;6146;48.128;11.476;2023-04-25T08:07:00;19.60;90.20
12166;DHT22;6146;48.128;11.476;2023-04-25T08:09:26;19.10;91.60
12166;DHT22;6146;48.128;11.476;2023-04-25T08:11:52;19.60;91.60
12166;DHT22;6146;48.128;11.476;2023-04-25T08:14:17;20.40;92.10
12166;DHT22;6146;48.128;11.476;2023-04-25T08:16:43;20.00;87.20
12166;DHT22;6146;48.128;11.476;2023-04-25T08:19:09;18.70;90.90
12166;DHT22;6146;48.128;11.476;2023-04-25T08:21:36;17.70;94.20
12166;DHT22;6146;48.128;11.476;2023-04-25T08:24:01;17.20;97.30
12166;DHT22;6146;48.128;11.476;2023-04-25T08:26:28;16.70;97.70
12166;DHT22;6146;48.128;11.476;2023-04-25T08:28:54;16.10;98.70
12166;DHT22;6146;48.128;11.476;2023-04-25T08:31:19;15.60;99.90
12166;DHT22;6146;48.128;11.476;2023-04-25T08:33:46;14.90;99.90
12166;DHT22;6146;48.128;11.476;2023-04-25T08:36:11;14.40;99.90
12166;DHT22;6146;48.128;11.476;2023-04-25T08:38:37;14.50;99.90
12166;DHT22;6146;48.128;11.476;2023-04-25T08:41:03;16.20;99.20
12166;DHT22;6146;48.128;11.476;2023-04-25T08:43:30;18.00;95.60
12166;DHT22;6146;48.128;11.476;2023-04-25T08:46:00;20.20;93.90
12166;DHT22;6146;48.128;11.476;2023-04-25T08:48:27;21.60;83.80
12166;DHT22;6146;48.128;11.476;2023-04-25T08:50:55;22.40;82.10
12166;DHT22;6146;48.128;11.476;2023-04-25T08:53:29;22.60;75.30
12166;DHT22;6146;48.128;11.476;2023-04-25T08:55:56;23.20;72.90
12166;DHT22;6146;48.128;11.476;2023-04-25T08:58:23;23.60;67.80
12166;DHT22;6146;48.128;11.476;2023-04-25T09:00:50;24.20;62.60
12166;DHT22;6146;48.128;11.476;2023-04-25T09:03:19;23.70;62.90
12166;DHT22;6146;48.128;11.476;2023-04-25T09:05:44;22.90;61.40
12166;DHT22;6146;48.128;11.476;2023-04-25T09:08:10;20.70;64.60
12166;DHT22;6146;48.128;11.476;2023-04-25T09:10:36;20.90;71.60
12166;DHT22;6146;48.128;11.476;2023-04-25T09:13:10;22.20;66.30
12166;DHT22;6146;48.128;11.476;2023-04-25T09:15:51;23.10;63.10
12166;DHT22;6146;48.128;11.476;2023-04-25T09:18:28;23.60;59.10
12166;DHT22;6146;48.128;11.476;2023-04-25T09:20:56;23.70;63.80
12166;DHT22;6146;48.128;11.476;2023-04-25T09:23:22;24.30;57.50
12166;DHT22;6146;48.128;11.476;2023-04-25T09:25:51;24.90;56.40
12166;DHT22;6146;48.128;11.476;2023-04-25T09:28:23;24.90;56.30
12166;DHT22;6146;48.128;11.476;2023-04-25T09:30:54;22.40;56.10
12166;DHT22;6146;48.128;11.476;2023-04-25T09:33:20;20.40;61.80
12166;DHT22;6146;48.128;11.476;2023-04-25T09:35:52;18.60;68.60
12166;DHT22;6146;48.128;11.476;2023-04-25T09:38:20;17.40;74.40
12166;DHT22;6146;48.128;11.476;2023-04-25T09:40:47;17.00;77.90
12166;DHT22;6146;48.128;11.476;2023-04-25T09:43:21;16.80;75.60
12166;DHT22;6146;48.128;11.476;2023-04-25T09:45:48;16.60;80.60
12166;DHT22;6146;48.128;11.476;2023-04-25T09:48:21;16.80;76.20
12166;DHT22;6146;48.128;11.476;2023-04-25T09:53:45;16.30;76.70
12166;DHT22;6146;48.128;11.476;2023-04-25T09:56:16;15.60;79.90
12166;DHT22;6146;48.128;11.476;2023-04-25T09:58:41;14.70;82.30
12166;DHT22;6146;48.128;11.476;2023-04-25T10:01:09;13.90;88.40
12166;DHT22;6146;48.128;11.476;2023-04-25T10:03:38;13.60;91.10
12166;DHT22;6146;48.128;11.476;2023-04-25T10:06:11;13.40;91.80
12166;DHT22;6146;48.128;11.476;2023-04-25T10:08:38;14.00;93.90
12166;DHT22;6146;48.128;11.476;2023-04-25T10:11:06;15.20;91.80
12166;DHT22;6146;48.128;11.476;2023-04-25T10:13:34;17.80;84.10
12166;DHT22;6146;48.128;11.476;2023-04-25T10:16:02;18.90;76.10
12166;DHT22;6146;48.128;11.476;2023-04-25T10:18:29;19.00;74.90
12166;DHT22;6146;48.128;11.476;2023-04-25T10:20:56;19.10;74.00
12166;DHT22;6146;48.128;11.476;2023-04-25T10:23:23;19.00;72.60
12166;DHT22;6146;48.128;11.476;2023-04-25T10:25:50;18.60;75.00
12166;DHT22;6146;48.128;11.476;2023-04-25T10:28:17;17.40;75.00
12166;DHT22;6146;48.128;11.476;2023-04-25T10:31:07;16.20;75.80
12166;DHT22;6146;48.128;11.476;2023-04-25T10:33:40;13.90;80.70
12166;DHT22;6146;48.128;11.476;2023-04-25T10:36:15;12.80;91.90
12166;DHT22;6146;48.128;11.476;2023-04-25T10:38:42;12.30;95.30
12166;DHT22;6146;48.128;11.476;2023-04-25T10:41:10;12.00;96.60
12166;DHT22;6146;48.128;11.476;2023-04-25T10:43:46;12.00;98.10
12166;DHT22;6146;48.128;11.476;2023-04-25T10:46:25;11.70;99.50
12166;DHT22;6146;48.128;11.476;2023-04-25T10:48:58;11.50;99.90
12166;DHT22;6146;48.128;11.476;2023-04-25T10:51:26;11.40;99.90
12166;DHT22;6146;48.128;11.476;2023-04-25T10:58:49;11.00;99.90
12166;DHT22;6146;48.128;11.476;2023-04-25T11:01:24;10.80;99.90
12166;DHT22;6146;48.128;11.476;2023-04-25T11:03:57;10.90;99.90
12166;DHT22;6146;48.128;11.476;2023-04-25T11:09:16;11.70;99.90
12166;DHT22;6146;48.128;11.476;2023-04-25T11:11:41;12.40;99.90
12166;DHT22;6146;48.128;11.476;2023-04-25T11:14:07;12.90;99.90
12166;DHT22;6146;48.128;11.476;2023-04-25T11:16:33;13.40;99.80
12166;DHT22;6146;48.128;11.476;2023-04-25T11:18:58;13.60;98.00
12166;DHT22;6146;48.128;11.476;2023-04-25T11:21:27;13.50;96.70
12166;DHT22;6146;48.128;11.476;2023-04-25T11:23:54;13.10;97.70
12166;DHT22;6146;48.128;11.476;2023-04-25T11:26:22;12.70;98.70
12166;DHT22;6146;48.128;11.476;2023-04-25T11:28:49;12.60;99.50
12166;DHT22;6146;48.128;11.476;2023-04-25T11:31:14;12.50;98.40
12166;DHT22;6146;48.128;11.476;2023-04-25T11:33:40;12.40;99.90
12166;DHT22;6146;48.128;11.476;2023-04-25T11:36:06;12.40;99.60
12166;DHT22;6146;48.128;11.476;2023-04-25T11:38:32;11.90;99.90
12166;DHT22;6146;48.128;11.476;2023-04-25T11:40:58;11.60;99.90
12166;DHT22;6146;48.128;11.476;2023-04-25T11:43:25;11.40;99.90
12166;DHT22;6146;48.128;11.476;2023-04-25T11:45:53;11.20;99.90
12166;DHT22;6146;48.128;11.476;2023-04-25T11:48:19;10.80;99.90
12166;DHT22;6146;48.128;11.476;2023-04-25T11:50:45;10.30;99.90
12166;DHT22;6146;48.128;11.476;2023-04-25T11:53:11;10.10;99.90
12166;DHT22;6146;48.128;11.476;2023-04-25T11:55:37;9.90;99.90
12166;DHT22;6146;48.128;11.476;2023-04-25T11:58:03;10.00;99.90
12166;DHT22;6146;48.128;11.476;2023-04-25T12:00:29;9.90;99.90
12166;DHT22;6146;48.128;11.476;2023-04-25T12:02:57;9.80;99.90
12166;DHT22;6146;48.128;11.476;2023-04-25T12:05:29;10.00;99.90
12166;DHT22;6146;48.128;11.476;2023-04-25T12:07:55;10.10;99.90
12166;DHT22;6146;48.128;11.476;2023-04-25T12:10:21;10.00;99.90
12166;DHT22;6146;48.128;11.476;2023-04-25T12:12:48;10.10;99.90
12166;DHT22;6146;48.128;11.476;2023-04-25T12:15:16;10.20;99.90
12166;DHT22;6146;48.128;11.476;2023-04-25T12:17:45;10.10;99.90
12166;DHT22;6146;48.128;11.476;2023-04-25T12:20:19;10.00;99.90
12166;DHT22;6146;48.128;11.476;2023-04-25T12:22:47;9.80;99.90
12166;DHT22;6146;48.128;11.476;2023-04-25T12:25:13;9.70;99.90
12166;DHT22;6146;48.128;11.476;2023-04-25T12:28:17;9.80;99.90
12166;DHT22;6146;48.128;11.476;2023-04-25T12:33:24;10.30;99.90
12166;DHT22;6146;48.128;11.476;2023-04-25T12:35:50;10.50;99.90
12166;DHT22;6146;48.128;11.476;2023-04-25T12:38:27;10.50;99.90
12166;DHT22;6146;48.128;11.476;2023-04-25T12:40:55;10.60;99.90
12166;DHT22;6146;48.128;11.476;2023-04-25T12:43:21;10.80;99.90
12166;DHT22;6146;48.128;11.476;2023-04-25T12:45:51;10.60;99.90
12166;DHT22;6146;48.128;11.476;2023-04-25T12:48:18;10.40;99.90
12166;DHT22;6146;48.128;11.476;2023-04-25T12:50:44;10.10;99.90
12166;DHT22;6146;48.128;11.476;2023-04-25T12:53:10;10.00;99.90
12166;DHT22;6146;48.128;11.476;2023-04-25T12:55:36;9.80;99.90
12166;DHT22;6146;48.128;11.476;2023-04-25T12:58:02;9.90;99.90
12166;DHT22;6146;48.128;11.476;2023-04-25T13:00:29;10.10;99.90
12166;DHT22;6146;48.128;11.476;2023-04-25T13:02:54;10.20;99.90
12166;DHT22;6146;48.128;11.476;2023-04-25T13:05:21;10.10;99.90
12166;DHT22;6146;48.128;11.476;2023-04-25T13:07:47;10.00;99.90
12166;DHT22;6146;48.128;11.476;2023-04-25T13:10:12;10.00;99.90
12166;DHT22;6146;48.128;11.476;2023-04-25T13:12:38;10.10;99.90
12166;DHT22;6146;48.128;11.476;2023-04-25T13:15:04;10.30;99.90
12166;DHT22;6146;48.128;11.476;2023-04-25T13:17:29;10.40;99.90
12166;DHT22;6146;48.128;11.476;2023-04-25T13:19:55;10.40;99.90
12166;DHT22;6146;48.128;11.476;2023-04-25T13:22:21;10.30;99.90
12166;DHT22;6146;48.128;11.476;2023-04-25T13:24:46;9.90;99.90
12166;DHT22;6146;48.128;11.476;2023-04-25T13:27:13;10.00;99.90
12166;DHT22;6146;48.128;11.476;2023-04-25T13:29:38;9.90;99.90
12166;DHT22;6146;48.128;11.476;2023-04-25T13:32:06;10.00;99.90
12166;DHT22;6146;48.128;11.476;2023-04-25T13:34:31;10.10;99.90
12166;DHT22;6146;48.128;11.476;2023-04-25T13:36:57;9.90;99.90
12166;DHT22;6146;48.128;11.476;2023-04-25T13:39:23;9.60;99.90
12166;DHT22;6146;48.128;11.476;2023-04-25T13:41:48;9.50;99.90
12166;DHT22;6146;48.128;11.476;2023-04-25T13:44:14;9.30;99.90
12166;DHT22;6146;48.128;11.476;2023-04-25T13:46:39;9.20;99.90
12166;DHT22;6146;48.128;11.476;2023-04-25T13:49:05;9.10;99.90
12166;DHT22;6146;48.128;11.476;2023-04-25T13:51:31;9.20;99.90
12166;DHT22;6146;48.128;11.476;2023-04-25T13:53:57;9.50;99.90
12166;DHT22;6146;48.128;11.476;2023-04-25T13:56:23;9.70;99.90
12166;DHT22;6146;48.128;11.476;2023-04-25T13:58:50;9.60;99.90
12166;DHT22;6146;48.128;11.476;2023-04-25T14:01:17;9.60;99.90
12166;DHT22;6146;48.128;11.476;2023-04-25T14:03:42;9.50;99.90
12166;DHT22;6146;48.128;11.476;2023-04-25T14:06:08;9.30;99.90
12166;DHT22;6146;48.128;11.476;2023-04-25T14:08:34;9.00;99.90
12166;DHT22;6146;48.128;11.476;2023-04-25T14:10:59;8.90;99.90
12166;DHT22;6146;48.128;11.476;2023-04-25T14:13:26;9.00;99.90
12166;DHT22;6146;48.128;11.476;2023-04-25T14:15:52;9.20;99.90
12166;DHT22;6146;48.128;11.476;2023-04-25T14:18:18;9.20;99.90
12166;DHT22;6146;48.128;11.476;2023-04-25T14:20:44;9.40;99.90
12166;DHT22;6146;48.128;11.476;2023-04-25T14:23:10;9.50;99.90
12166;DHT22;6146;48.128;11.476;2023-04-25T14:25:35;9.80;99.90
12166;DHT22;6146;48.128;11.476;2023-04-25T14:28:01;10.30;99.90
12166;DHT22;6146;48.128;11.476;2023-04-25T14:30:27;10.40;99.90
12166;DHT22;6146;48.128;11.476;2023-04-25T14:32:53;10.40;99.90
12166;DHT22;6146;48.128;11.476;2023-04-25T14:35:19;10.30;99.90
12166;DHT22;6146;48.128;11.476;2023-04-25T14:37:45;10.30;99.90
12166;DHT22;6146;48.128;11.476;2023-04-25T14:40:12;10.30;99.90
12166;DHT22;6146;48.128;11.476;2023-04-25T14:42:39;10.30;99.90
12166;DHT22;6146;48.128;11.476;2023-04-25T14:45:06;10.50;99.90
12166;DHT22;6146;48.128;11.476;2023-04-25T14:47:32;10.60;99.90
12166;DHT22;6146;48.128;11.476;2023-04-25T14:49:58;10.60;99.90
12166;DHT22;6146;48.128;11.476;2023-04-25T14:52:24;10.40;99.90
12166;DHT22;6146;48.128;11.476;2023-04-25T14:54:51;10.20;99.90
12166;DHT22;6146;48.128;11.476;2023-04-25T14:57:17;10.20;99.90
12166;DHT22;6146;48.128;11.476;2023-04-25T14:59:42;10.20;99.90
12166;DHT22;6146;48.128;11.476;2023-04-25T15:02:08;10.20;99.90
12166;DHT22;6146;48.128;11.476;2023-04-25T15:04:33;10.30;99.90
12166;DHT22;6146;48.128;11.476;2023-04-25T15:06:59;10.30;99.90
12166;DHT22;6146;48.128;11.476;2023-04-25T15:09:25;10.30;99.90
12166;DHT22;6146;48.128;11.476;2023-04-25T15:11:51;10.40;99.90
12166;DHT22;6146;48.128;11.476;2023-04-25T15:14:17;10.30;99.90
12166;DHT22;6146;48.128;11.476;2023-04-25T15:16:43;10.30;99.90
12166;DHT22;6146;48.128;11.476;2023-04-25T15:19:08;10.10;99.90
12166;DHT22;6146;48.128;11.476;2023-04-25T15:21:34;9.80;99.90
12166;DHT22;6146;48.128;11.476;2023-04-25T15:24:00;9.80;99.90
12166;DHT22;6146;48.128;11.476;2023-04-25T15:26:27;9.70;99.90
12166;DHT22;6146;48.128;11.476;2023-04-25T15:28:53;9.80;99.90
12166;DHT22;6146;48.128;11.476;2023-04-25T15:31:19;9.90;99.90
12166;DHT22;6146;48.128;11.476;2023-04-25T15:33:44;10.00;99.90
12166;DHT22;6146;48.128;11.476;2023-04-25T15:36:10;10.10;99.90
12166;DHT22;6146;48.128;11.476;2023-04-25T15:38:36;10.40;99.90
12166;DHT22;6146;48.128;11.476;2023-04-25T15:41:02;10.60;99.90
12166;DHT22;6146;48.128;11.476;2023-04-25T15:43:27;10.50;99.90
12166;DHT22;6146;48.128;11.476;2023-04-25T15:45:53;10.20;99.90
12166;DHT22;6146;48.128;11.476;2023-04-25T15:48:18;10.00;99.90
12166;DHT22;6146;48.128;11.476;2023-04-25T15:50:44;9.80;99.90